createdAt,value
2022-11-29T00:00:28.429Z,0.00
2022-11-29T00:05:16.900Z,0.00
2022-11-29T00:10:22.912Z,0.00
2022-11-29T00:15:28.589Z,0.00
2022-11-29T00:20:26.742Z,0.00
2022-11-29T00:25:23.646Z,0.00
2022-11-29T00:30:29.746Z,0.00
2022-11-29T00:35:18.767Z,0.00
2022-11-29T00:40:28.588Z,0.00
2022-11-29T00:45:31.014Z,0.00
2022-11-29T00:50:20.150Z,0.00
2022-11-29T00:55:26.056Z,0.00
2022-11-29T01:00:41.335Z,0.00
2022-11-29T01:05:20.528Z,0.00
2022-11-29T01:10:26.506Z,0.00
2022-11-29T01:15:32.229Z,0.00
2022-11-29T01:20:26.669Z,0.00
2022-11-29T01:25:27.312Z,0.00
2022-11-29T01:30:16.398Z,0.00
2022-11-29T01:35:22.552Z,0.00
2022-11-29T01:40:29.507Z,0.00
2022-11-29T01:45:17.470Z,0.00
2022-11-29T01:50:23.662Z,0.00
2022-11-29T01:55:29.642Z,0.00
2022-11-29T02:00:19.646Z,0.00
2022-11-29T02:05:25.339Z,0.00
2022-11-29T02:10:30.339Z,0.00
2022-11-29T02:15:19.780Z,0.00
2022-11-29T02:20:26.526Z,0.00
2022-11-29T02:25:31.931Z,0.00
2022-11-29T02:30:20.898Z,0.00
2022-11-29T02:35:26.954Z,0.00
2022-11-29T02:40:34.871Z,0.00
2022-11-29T02:45:22.132Z,0.00
2022-11-29T02:50:28.342Z,0.00
2022-11-29T02:55:17.193Z,0.00
2022-11-29T03:00:55.361Z,0.00
2022-11-29T03:05:28.835Z,0.00
2022-11-29T03:10:17.683Z,0.00
2022-11-29T03:15:23.441Z,0.00
2022-11-29T03:20:31.463Z,0.00
2022-11-29T03:25:18.589Z,0.00
2022-11-29T03:30:24.635Z,0.00
2022-11-29T03:35:30.681Z,0.00
2022-11-29T03:40:20.796Z,0.00
2022-11-29T03:45:25.866Z,0.00
2022-11-29T03:50:31.938Z,0.00
2022-11-29T03:55:20.863Z,0.00
2022-11-29T04:01:23.997Z,0.00
2022-11-29T04:05:33.412Z,0.00
2022-11-29T04:10:21.491Z,0.00
2022-11-29T04:15:27.058Z,0.00
2022-11-29T04:20:16.773Z,0.00
2022-11-29T04:25:22.226Z,0.00
2022-11-29T04:30:28.305Z,0.00
2022-11-29T04:35:17.298Z,0.00
2022-11-29T04:40:24.283Z,0.00
2022-11-29T04:45:29.562Z,0.00
2022-11-29T04:50:18.457Z,0.00
2022-11-29T04:55:30.652Z,0.00
2022-11-29T05:00:31.495Z,0.00
2022-11-29T05:05:19.054Z,0.00
2022-11-29T05:10:25.096Z,0.00
2022-11-29T05:15:31.820Z,0.00
2022-11-29T05:20:22.348Z,0.00
2022-11-29T05:25:26.933Z,0.00
2022-11-29T05:30:32.971Z,0.00
2022-11-29T05:35:22.013Z,0.00
2022-11-29T05:40:29.580Z,0.00
2022-11-29T05:45:17.132Z,0.00
2022-11-29T05:50:23.178Z,0.00
2022-11-29T05:55:29.254Z,0.00
2022-11-29T06:00:19.012Z,0.00
2022-11-29T06:05:23.580Z,0.00
2022-11-29T06:10:29.633Z,0.00
2022-11-29T06:15:18.507Z,0.00
2022-11-29T06:20:25.801Z,0.00
2022-11-29T06:25:30.695Z,0.00
2022-11-29T06:30:19.726Z,0.00
2022-11-29T06:35:25.741Z,0.00
2022-11-29T06:40:33.369Z,0.00
2022-11-29T06:45:20.823Z,0.02
2022-11-29T06:50:27.003Z,0.34
2022-11-29T06:55:33.674Z,1.50
2022-11-29T07:00:23.291Z,2.69
2022-11-29T07:05:27.512Z,4.89
2022-11-29T07:10:16.453Z,6.35
2022-11-29T07:15:22.171Z,8.00
2022-11-29T07:20:29.215Z,9.32
2022-11-29T07:25:17.264Z,10.89
2022-11-29T07:30:23.343Z,13.10
2022-11-29T07:35:29.314Z,15.80
2022-11-29T07:40:19.480Z,15.59
2022-11-29T07:45:24.458Z,14.25
2022-11-29T07:50:30.731Z,16.01
2022-11-29T07:55:19.617Z,16.80
2022-11-29T08:00:26.788Z,17.44
2022-11-29T08:05:31.824Z,18.49
2022-11-29T08:10:20.194Z,23.92
2022-11-29T08:15:26.783Z,27.49
2022-11-29T08:20:33.968Z,28.14
2022-11-29T08:25:21.865Z,28.60
2022-11-29T08:30:28.847Z,27.01
2022-11-29T08:35:16.937Z,23.57
2022-11-29T08:40:24.311Z,22.01
2022-11-29T08:45:29.056Z,22.66
2022-11-29T08:50:18.216Z,26.86
2022-11-29T08:55:24.213Z,31.45
2022-11-29T09:00:30.915Z,33.53
2022-11-29T09:05:19.009Z,33.24
2022-11-29T09:10:25.039Z,29.97
2022-11-29T09:15:31.573Z,32.96
2022-11-29T09:20:21.258Z,33.21
2022-11-29T09:25:26.612Z,35.20
2022-11-29T09:30:32.848Z,37.64
2022-11-29T09:35:21.623Z,40.60
2022-11-29T09:40:28.856Z,42.55
2022-11-29T09:45:16.746Z,44.09
2022-11-29T09:50:22.816Z,44.38
2022-11-29T09:55:28.927Z,46.10
2022-11-29T10:00:19.015Z,48.98
2022-11-29T10:05:23.379Z,48.98
2022-11-29T10:10:29.363Z,47.62
2022-11-29T10:15:18.051Z,50.89
2022-11-29T10:20:25.904Z,56.16
2022-11-29T10:25:30.226Z,58.93
2022-11-29T10:30:19.273Z,55.74
2022-11-29T10:35:25.322Z,57.25
2022-11-29T10:40:32.696Z,52.28
2022-11-29T10:45:20.447Z,55.10
2022-11-29T10:50:26.475Z,54.80
2022-11-29T10:55:33.683Z,52.31
2022-11-29T11:00:22.676Z,57.55
2022-11-29T11:05:27.022Z,57.01
2022-11-29T11:10:15.931Z,58.41
2022-11-29T11:15:22.269Z,56.04
2022-11-29T11:20:29.661Z,50.20
2022-11-29T11:25:17.464Z,45.76
2022-11-29T11:30:23.554Z,42.54
2022-11-29T11:35:29.528Z,42.85
2022-11-29T11:40:19.842Z,39.78
2022-11-29T11:45:24.680Z,42.70
2022-11-29T11:50:30.689Z,43.34
2022-11-29T11:55:19.877Z,44.94
2022-11-29T12:01:01.978Z,45.68
2022-11-29T12:05:31.118Z,47.41
2022-11-29T12:10:20.240Z,47.99
2022-11-29T12:15:25.995Z,46.42
2022-11-29T12:20:42.933Z,48.36
2022-11-29T12:25:21.088Z,46.86
2022-11-29T12:30:27.149Z,47.08
2022-11-29T12:35:19.043Z,43.58
2022-11-29T12:40:30.486Z,43.37
2022-11-29T12:45:28.301Z,43.90
2022-11-29T12:50:17.386Z,41.89
2022-11-29T12:55:23.453Z,40.17
2022-11-29T13:00:47.634Z,41.02
2022-11-29T13:10:23.940Z,42.32
2022-11-29T13:15:31.815Z,43.38
2022-11-29T13:20:21.000Z,42.53
2022-11-29T13:25:25.904Z,41.02
2022-11-29T13:30:31.933Z,39.85
2022-11-29T13:35:20.944Z,38.40
2022-11-29T13:40:38.169Z,37.48
2022-11-29T13:45:33.087Z,34.39
2022-11-29T13:50:22.058Z,31.29
2022-11-29T13:55:28.412Z,28.82
2022-11-29T14:00:18.306Z,27.55
2022-11-29T14:05:24.120Z,26.70
2022-11-29T14:10:29.490Z,23.76
2022-11-29T14:15:17.444Z,22.05
2022-11-29T14:20:24.511Z,20.05
2022-11-29T14:26:06.292Z,18.27
2022-11-29T14:30:18.580Z,16.84
2022-11-29T14:35:24.586Z,14.90
2022-11-29T14:40:31.929Z,12.77
2022-11-29T14:45:19.701Z,11.14
2022-11-29T14:50:25.737Z,9.23
2022-11-29T14:55:31.892Z,7.40
2022-11-29T15:00:21.907Z,5.85
2022-11-29T15:05:26.148Z,4.04
2022-11-29T15:10:32.097Z,2.36
2022-11-29T15:15:20.991Z,1.25
2022-11-29T15:20:28.405Z,0.19
2022-11-29T15:25:16.979Z,0.04
2022-11-29T15:30:22.234Z,0.00
2022-11-29T15:35:28.242Z,0.00
2022-11-29T15:40:18.290Z,0.00
2022-11-29T15:45:23.336Z,0.00
2022-11-29T15:50:29.430Z,0.00
2022-11-29T15:55:18.470Z,0.00
2022-11-29T16:00:25.580Z,0.00
2022-11-29T16:05:30.746Z,0.00
2022-11-29T16:10:23.446Z,0.00
2022-11-29T16:15:25.763Z,0.00
2022-11-29T16:20:32.876Z,0.00
2022-11-29T16:25:20.794Z,0.00
2022-11-29T16:30:26.955Z,0.00
2022-11-29T16:35:33.445Z,0.00
2022-11-29T16:40:29.159Z,0.00
2022-11-29T16:45:28.141Z,0.00
2022-11-29T16:50:17.073Z,0.00
2022-11-29T16:55:23.228Z,0.00
2022-11-29T17:00:48.291Z,0.00
2022-11-29T17:05:17.688Z,0.00
2022-11-29T17:10:23.672Z,0.00
2022-11-29T17:15:29.415Z,0.00
2022-11-29T17:20:31.840Z,0.00
2022-11-29T17:25:24.454Z,0.00
2022-11-29T17:30:30.637Z,0.00
2022-11-29T17:35:19.580Z,0.00
2022-11-29T17:40:27.016Z,0.00
2022-11-29T17:45:34.620Z,0.00
2022-11-29T17:50:20.790Z,0.00
2022-11-29T17:55:29.549Z,0.00
2022-11-29T18:00:34.225Z,0.00
2022-11-29T18:05:21.216Z,0.00
2022-11-29T18:10:27.329Z,0.00
2022-11-29T18:15:15.923Z,0.00
2022-11-29T18:20:23.148Z,0.00
2022-11-29T18:25:38.808Z,0.00
2022-11-29T18:30:17.117Z,0.00
2022-11-29T18:35:24.155Z,0.00
2022-11-29T18:40:30.052Z,0.00
2022-11-29T18:45:18.225Z,0.00
2022-11-29T18:50:24.354Z,0.00
2022-11-29T18:55:30.407Z,0.00
2022-11-29T19:00:20.274Z,0.00
2022-11-29T19:05:26.269Z,0.00
2022-11-29T19:10:31.882Z,0.00
2022-11-29T19:15:20.526Z,0.00
2022-11-29T19:20:28.950Z,0.00
2022-11-29T19:25:32.750Z,0.00
2022-11-29T19:30:21.750Z,0.00
2022-11-29T19:35:28.059Z,0.00
2022-11-29T19:40:17.450Z,0.00
2022-11-29T19:45:22.913Z,0.00
2022-11-29T19:50:29.025Z,0.00
2022-11-29T19:55:18.052Z,0.00
2022-11-29T20:00:25.354Z,0.00
2022-11-29T20:05:29.634Z,0.00
2022-11-29T20:10:18.505Z,0.00
2022-11-29T20:15:24.209Z,0.00
2022-11-29T20:20:31.217Z,0.00
2022-11-29T20:25:19.345Z,0.00
2022-11-29T20:30:25.392Z,0.00
2022-11-29T20:35:31.814Z,0.00
2022-11-29T20:40:21.347Z,0.00
2022-11-29T20:45:26.596Z,0.00
2022-11-29T20:50:32.740Z,0.00
2022-11-29T20:55:21.648Z,0.00
2022-11-29T21:00:37.406Z,0.00
2022-11-29T21:05:16.061Z,0.00
2022-11-29T21:10:22.159Z,0.00
2022-11-29T21:15:28.738Z,0.00
2022-11-29T21:20:23.698Z,0.00
2022-11-29T21:25:23.880Z,0.00
2022-11-29T21:30:29.964Z,0.00
2022-11-29T21:35:19.263Z,0.00
2022-11-29T21:40:26.214Z,0.00
2022-11-29T21:45:31.967Z,0.00
2022-11-29T21:50:20.141Z,0.00
2022-11-29T21:55:31.706Z,0.00
2022-11-29T22:00:37.304Z,0.00
2022-11-29T22:05:20.689Z,0.00
2022-11-29T22:10:26.800Z,0.00
2022-11-29T22:15:32.785Z,0.00
2022-11-29T22:20:33.793Z,0.00
2022-11-29T22:25:27.601Z,0.00
2022-11-29T22:30:16.623Z,0.00
2022-11-29T22:35:22.695Z,0.00
2022-11-29T22:40:30.259Z,0.00
2022-11-29T22:45:17.865Z,0.00
2022-11-29T22:50:23.899Z,0.00
2022-11-29T22:55:29.998Z,0.00
2022-11-29T23:00:27.981Z,0.00
2022-11-29T23:05:27.253Z,0.00
2022-11-29T23:10:30.655Z,0.00
2022-11-29T23:15:19.249Z,0.00
2022-11-29T23:20:26.286Z,0.00
2022-11-29T23:25:31.370Z,0.00
2022-11-29T23:30:20.441Z,0.00
2022-11-29T23:35:26.490Z,0.00
2022-11-29T23:40:33.395Z,0.00
2022-11-29T23:45:21.606Z,0.00
2022-11-29T23:50:27.666Z,0.00
2022-11-29T23:55:16.684Z,0.00
